createdAt,value
2019-03-29T00:01:49.114Z,11.03
2019-03-29T00:04:19.455Z,11.12
2019-03-29T00:06:49.814Z,11.28
2019-03-29T00:09:20.151Z,11.40
2019-03-29T00:11:50.503Z,11.20
2019-03-29T00:14:23.469Z,11.57
2019-03-29T00:16:52.877Z,10.48
2019-03-29T00:19:23.220Z,11.78
2019-03-29T00:21:53.551Z,10.32
2019-03-29T00:24:23.962Z,10.38
2019-03-29T00:26:54.298Z,11.08
2019-03-29T00:29:24.638Z,10.65
2019-03-29T00:31:55.158Z,12.00
2019-03-29T00:34:25.506Z,11.70
2019-03-29T00:36:55.815Z,11.22
2019-03-29T00:39:26.149Z,11.15
2019-03-29T00:41:56.486Z,11.12
2019-03-29T00:44:26.984Z,10.98
2019-03-29T00:46:57.554Z,11.83
2019-03-29T00:49:27.900Z,11.78
2019-03-29T00:51:59.311Z,11.30
2019-03-29T00:54:30.148Z,11.18
2019-03-29T00:57:00.491Z,11.40
2019-03-29T00:59:30.869Z,11.20
2019-03-29T01:02:01.202Z,12.05
2019-03-29T01:04:31.552Z,11.35
2019-03-29T01:07:01.887Z,11.20
2019-03-29T01:09:32.237Z,11.70
2019-03-29T01:12:02.568Z,11.48
2019-03-29T01:14:32.900Z,11.12
2019-03-29T01:17:03.238Z,13.20
2019-03-29T01:19:33.581Z,11.55
2019-03-29T01:22:03.916Z,11.08
2019-03-29T01:24:34.255Z,12.15
2019-03-29T01:27:04.587Z,12.03
2019-03-29T01:29:34.930Z,12.03
2019-03-29T01:32:05.258Z,12.58
2019-03-29T01:34:35.606Z,11.97
2019-03-29T01:37:05.951Z,11.22
2019-03-29T01:39:36.300Z,11.93
2019-03-29T01:42:06.701Z,12.33
2019-03-29T01:44:37.051Z,12.58
2019-03-29T01:47:07.389Z,12.15
2019-03-29T01:49:37.742Z,12.90
2019-03-29T01:52:08.068Z,12.88
2019-03-29T01:54:38.412Z,12.53
2019-03-29T01:57:08.742Z,14.13
2019-03-29T01:59:39.084Z,12.78
2019-03-29T02:02:09.426Z,11.90
2019-03-29T02:04:39.785Z,14.25
2019-03-29T02:07:10.113Z,12.95
2019-03-29T02:09:40.451Z,12.88
2019-03-29T02:12:10.852Z,12.55
2019-03-29T02:14:41.189Z,12.58
2019-03-29T02:17:12.484Z,13.43
2019-03-29T02:19:42.827Z,13.20
2019-03-29T02:22:13.169Z,12.50
2019-03-29T02:24:43.513Z,13.62
2019-03-29T02:27:14.809Z,12.95
2019-03-29T02:29:45.149Z,12.25
2019-03-29T02:32:15.476Z,12.73
2019-03-29T02:34:45.839Z,12.73
2019-03-29T02:37:16.177Z,13.10
2019-03-29T02:39:46.521Z,13.05
2019-03-29T02:42:16.865Z,13.55
2019-03-29T02:44:47.198Z,13.88
2019-03-29T02:47:17.549Z,13.93
2019-03-29T02:49:47.882Z,13.03
2019-03-29T02:52:18.245Z,13.10
2019-03-29T02:54:48.597Z,12.65
2019-03-29T02:57:18.928Z,13.60
2019-03-29T02:59:49.270Z,14.05
2019-03-29T03:02:19.600Z,13.75
2019-03-29T03:04:49.947Z,12.65
2019-03-29T03:07:20.289Z,13.55
2019-03-29T03:09:50.815Z,14.15
2019-03-29T03:12:21.142Z,12.82
2019-03-29T03:14:51.501Z,14.55
2019-03-29T03:17:21.903Z,13.53
2019-03-29T03:19:52.249Z,15.05
2019-03-29T03:22:22.874Z,13.68
2019-03-29T03:24:53.206Z,15.32
2019-03-29T03:27:23.545Z,14.80
2019-03-29T03:29:53.886Z,14.18
2019-03-29T03:32:24.271Z,14.60
2019-03-29T03:34:54.580Z,14.50
2019-03-29T03:37:25.231Z,15.72
2019-03-29T03:39:55.565Z,13.93
2019-03-29T03:42:25.903Z,14.87
2019-03-29T03:44:56.256Z,15.68
2019-03-29T03:47:26.854Z,15.40
2019-03-29T03:50:00.715Z,15.50
2019-03-29T03:52:29.281Z,13.70
2019-03-29T03:54:59.613Z,14.80
2019-03-29T03:57:30.349Z,14.68
2019-03-29T04:00:02.195Z,14.83
2019-03-29T04:02:32.531Z,14.47
2019-03-29T04:05:02.858Z,14.58
2019-03-29T04:07:33.189Z,14.73
2019-03-29T04:10:04.772Z,14.90
2019-03-29T04:12:35.106Z,15.28
2019-03-29T04:15:06.159Z,15.83
2019-03-29T04:17:36.490Z,14.78
2019-03-29T04:20:07.568Z,14.73
2019-03-29T04:22:37.911Z,15.15
2019-03-29T04:25:20.413Z,14.98
2019-03-29T04:27:50.774Z,14.87
2019-03-29T04:30:21.109Z,14.45
2019-03-29T04:32:51.448Z,15.25
2019-03-29T04:35:21.775Z,14.78
2019-03-29T04:37:52.128Z,14.80
2019-03-29T04:40:22.463Z,15.55
2019-03-29T04:42:52.809Z,17.23
2019-03-29T04:45:23.149Z,17.77
2019-03-29T04:47:53.482Z,18.40
2019-03-29T04:50:23.829Z,18.12
2019-03-29T04:52:54.166Z,17.40
2019-03-29T04:55:24.501Z,18.73
2019-03-29T04:57:54.841Z,18.40
2019-03-29T05:00:25.268Z,17.70
2019-03-29T05:02:55.609Z,16.48
2019-03-29T05:05:25.946Z,17.75
2019-03-29T05:07:56.283Z,17.00
2019-03-29T05:10:26.608Z,16.50
2019-03-29T05:12:59.550Z,16.37
2019-03-29T05:15:31.017Z,15.65
2019-03-29T05:18:02.422Z,15.50
2019-03-29T05:20:32.760Z,14.98
2019-03-29T05:23:03.098Z,15.32
2019-03-29T05:25:33.429Z,14.50
2019-03-29T05:28:03.832Z,15.57
2019-03-29T05:30:34.167Z,16.13
2019-03-29T05:33:04.506Z,14.90
2019-03-29T05:35:34.836Z,15.20
2019-03-29T05:38:05.171Z,15.28
2019-03-29T05:40:35.793Z,16.15
2019-03-29T05:43:06.127Z,16.37
2019-03-29T05:45:36.459Z,15.23
2019-03-29T05:48:06.789Z,16.67
2019-03-29T05:50:37.395Z,15.53
2019-03-29T05:53:07.727Z,17.32
2019-03-29T05:55:38.059Z,16.93
2019-03-29T05:58:08.418Z,16.77
2019-03-29T06:00:38.738Z,17.67
2019-03-29T06:03:10.203Z,17.42
2019-03-29T06:05:40.790Z,17.32
2019-03-29T06:08:11.127Z,17.10
2019-03-29T06:10:48.982Z,18.27
2019-03-29T06:13:13.781Z,17.27
2019-03-29T06:15:44.126Z,17.90
2019-03-29T06:18:14.458Z,15.50
2019-03-29T06:20:44.809Z,17.07
2019-03-29T06:23:15.140Z,17.00
2019-03-29T06:25:45.491Z,16.75
2019-03-29T06:28:15.827Z,18.02
2019-03-29T06:30:48.038Z,17.20
2019-03-29T06:33:19.411Z,17.40
2019-03-29T06:35:53.565Z,17.48
2019-03-29T06:38:26.014Z,17.37
2019-03-29T06:41:02.740Z,17.48
2019-03-29T06:43:28.440Z,17.37
2019-03-29T06:45:58.768Z,16.70
2019-03-29T06:48:29.106Z,16.10
2019-03-29T06:50:59.438Z,17.42
2019-03-29T06:53:29.799Z,15.40
2019-03-29T06:56:00.133Z,15.80
2019-03-29T06:58:30.475Z,15.10
2019-03-29T07:01:00.826Z,14.55
2019-03-29T07:03:31.163Z,14.47
2019-03-29T07:06:01.763Z,15.00
2019-03-29T07:08:32.105Z,14.10
2019-03-29T07:11:16.195Z,14.35
2019-03-29T07:13:34.543Z,14.43
2019-03-29T07:16:04.836Z,13.78
2019-03-29T07:18:35.185Z,13.83
2019-03-29T07:21:05.536Z,13.93
2019-03-29T07:23:37.010Z,13.83
2019-03-29T07:26:07.360Z,13.93
2019-03-29T07:28:37.727Z,13.90
2019-03-29T07:31:08.085Z,14.73
2019-03-29T07:33:38.430Z,15.80
2019-03-29T07:36:08.771Z,15.70
2019-03-29T07:38:39.960Z,18.00
2019-03-29T07:41:10.304Z,17.25
2019-03-29T07:43:40.685Z,18.25
2019-03-29T07:46:11.054Z,19.25
2019-03-29T07:48:41.396Z,22.85
2019-03-29T07:51:11.752Z,23.02
2019-03-29T07:53:44.926Z,23.40
2019-03-29T07:56:15.125Z,25.50
2019-03-29T07:58:45.484Z,25.75
2019-03-29T08:01:15.824Z,28.62
2019-03-29T08:03:46.184Z,30.80
2019-03-29T08:06:16.527Z,29.95
2019-03-29T08:08:46.876Z,30.45
2019-03-29T08:11:25.932Z,28.20
2019-03-29T08:13:49.273Z,28.52
2019-03-29T08:16:19.625Z,27.95
2019-03-29T08:18:49.971Z,25.37
2019-03-29T08:21:20.314Z,27.98
2019-03-29T08:23:50.674Z,28.52
2019-03-29T08:26:21.011Z,28.45
2019-03-29T08:28:51.357Z,29.20
2019-03-29T08:31:21.699Z,28.70
2019-03-29T08:33:52.055Z,28.47
2019-03-29T08:36:22.396Z,28.73
2019-03-29T08:38:52.755Z,29.70
2019-03-29T08:41:23.097Z,28.38
2019-03-29T08:43:53.463Z,28.67
2019-03-29T08:46:23.822Z,29.25
2019-03-29T08:48:54.232Z,27.82
2019-03-29T08:51:24.588Z,28.50
2019-03-29T08:53:54.944Z,31.95
2019-03-29T08:56:25.287Z,28.42
2019-03-29T08:58:55.647Z,28.15
2019-03-29T09:01:26.366Z,30.65
2019-03-29T09:04:05.161Z,30.37
2019-03-29T09:06:30.268Z,34.30
2019-03-29T09:09:01.819Z,32.05
2019-03-29T09:11:33.794Z,32.28
2019-03-29T09:14:04.157Z,33.88
2019-03-29T09:16:34.492Z,33.42
2019-03-29T09:19:04.843Z,34.13
2019-03-29T09:21:35.191Z,35.08
2019-03-29T09:24:05.547Z,36.50
2019-03-29T09:26:35.912Z,37.03
2019-03-29T09:29:06.243Z,37.15
2019-03-29T09:31:36.589Z,38.00
2019-03-29T09:34:06.931Z,39.58
2019-03-29T09:36:37.286Z,38.92
2019-03-29T09:39:08.071Z,39.75
2019-03-29T09:41:38.418Z,38.25
2019-03-29T09:44:08.760Z,34.67
2019-03-29T09:46:41.911Z,34.75
2019-03-29T09:49:12.267Z,31.75
2019-03-29T09:51:42.619Z,34.03
2019-03-29T09:54:12.980Z,34.88
2019-03-29T09:56:43.349Z,39.63
2019-03-29T09:59:16.345Z,37.93
2019-03-29T10:01:45.742Z,34.67
2019-03-29T10:04:16.083Z,33.95
2019-03-29T10:06:46.443Z,31.40
2019-03-29T10:09:16.816Z,31.77
2019-03-29T10:11:47.178Z,31.02
2019-03-29T10:14:17.521Z,31.00
2019-03-29T10:16:47.877Z,32.75
2019-03-29T10:19:18.219Z,31.12
2019-03-29T10:21:48.570Z,32.38
2019-03-29T10:24:18.911Z,33.88
2019-03-29T10:26:49.253Z,34.67
2019-03-29T10:29:19.603Z,35.38
2019-03-29T10:31:49.958Z,31.50
2019-03-29T10:34:20.320Z,31.80
2019-03-29T10:36:50.673Z,32.45
2019-03-29T10:39:21.017Z,29.55
2019-03-29T10:41:51.370Z,29.90
2019-03-29T10:44:21.719Z,30.92
2019-03-29T10:46:52.061Z,29.85
2019-03-29T10:49:22.404Z,28.25
2019-03-29T10:51:52.758Z,27.32
2019-03-29T10:54:23.170Z,29.45
2019-03-29T10:56:53.614Z,28.52
2019-03-29T10:59:27.833Z,30.17
2019-03-29T11:01:56.963Z,28.87
2019-03-29T11:04:27.310Z,26.33
2019-03-29T11:06:57.661Z,26.27
2019-03-29T11:09:29.160Z,25.85
2019-03-29T11:11:59.504Z,26.33
2019-03-29T11:14:29.857Z,25.30
2019-03-29T11:17:01.005Z,25.45
2019-03-29T11:19:31.448Z,26.23
2019-03-29T11:22:01.803Z,25.15
2019-03-29T11:24:32.239Z,25.27
2019-03-29T11:27:02.658Z,23.87
2019-03-29T11:29:33.018Z,23.95
2019-03-29T11:32:04.412Z,27.37
2019-03-29T11:34:34.752Z,28.70
2019-03-29T11:37:05.108Z,26.90
2019-03-29T11:39:35.458Z,25.72
2019-03-29T11:42:05.808Z,27.80
2019-03-29T11:44:36.157Z,29.75
2019-03-29T11:47:06.583Z,30.92
2019-03-29T11:49:36.929Z,27.67
2019-03-29T11:52:08.265Z,30.57
2019-03-29T11:54:38.615Z,29.90
2019-03-29T11:57:08.981Z,30.70
2019-03-29T11:59:40.287Z,29.60
2019-03-29T12:02:10.858Z,31.05
2019-03-29T12:04:41.206Z,30.08
2019-03-29T12:07:12.042Z,29.48
2019-03-29T12:09:42.392Z,29.52
2019-03-29T12:12:12.755Z,30.97
2019-03-29T12:14:43.106Z,28.77
2019-03-29T12:17:13.523Z,28.47
2019-03-29T12:19:43.902Z,28.42
2019-03-29T12:22:14.245Z,27.98
2019-03-29T12:24:44.596Z,29.87
2019-03-29T12:27:16.019Z,29.67
2019-03-29T12:29:46.367Z,29.30
2019-03-29T12:32:16.777Z,27.02
2019-03-29T12:34:47.112Z,27.13
2019-03-29T12:37:17.477Z,27.32
2019-03-29T12:39:47.823Z,29.02
2019-03-29T12:42:18.176Z,30.57
2019-03-29T12:44:48.524Z,26.42
2019-03-29T12:47:18.875Z,26.87
2019-03-29T12:49:49.214Z,28.95
2019-03-29T12:52:19.569Z,27.65
2019-03-29T12:54:49.922Z,28.65
2019-03-29T12:57:20.271Z,28.77
2019-03-29T12:59:50.619Z,28.90
2019-03-29T13:02:20.964Z,27.95
2019-03-29T13:04:51.325Z,28.50
2019-03-29T13:07:21.675Z,28.55
2019-03-29T13:09:52.033Z,30.27
2019-03-29T13:12:22.378Z,28.70
2019-03-29T13:14:52.734Z,28.07
2019-03-29T13:17:23.083Z,25.75
2019-03-29T13:19:53.432Z,28.20
2019-03-29T13:22:23.850Z,30.10
2019-03-29T13:24:54.194Z,28.17
2019-03-29T13:27:24.544Z,29.37
2019-03-29T13:29:54.893Z,27.87
2019-03-29T13:32:25.235Z,28.75
2019-03-29T13:34:55.582Z,26.15
2019-03-29T13:37:25.923Z,30.60
2019-03-29T13:39:56.280Z,29.75
2019-03-29T13:42:26.631Z,26.73
2019-03-29T13:44:56.986Z,29.40
2019-03-29T13:47:27.330Z,25.92
2019-03-29T13:49:57.705Z,27.07
2019-03-29T13:52:31.101Z,26.12
2019-03-29T13:55:00.345Z,26.77
2019-03-29T13:57:30.752Z,27.15
2019-03-29T14:00:01.115Z,26.45
2019-03-29T14:02:31.444Z,25.80
2019-03-29T14:05:01.805Z,27.10
2019-03-29T14:07:32.150Z,27.73
2019-03-29T14:10:02.505Z,26.62
2019-03-29T14:12:32.846Z,24.45
2019-03-29T14:15:03.200Z,25.92
2019-03-29T14:17:35.213Z,26.55
2019-03-29T14:20:06.563Z,23.18
2019-03-29T14:22:37.882Z,25.80
2019-03-29T14:25:08.833Z,25.92
2019-03-29T14:27:39.186Z,25.55
2019-03-29T14:30:10.244Z,26.50
2019-03-29T14:32:40.586Z,23.65
2019-03-29T14:35:11.736Z,24.30
2019-03-29T14:37:42.086Z,22.65
2019-03-29T14:40:12.940Z,24.82
2019-03-29T14:42:43.281Z,23.22
2019-03-29T14:45:15.143Z,24.23
2019-03-29T14:47:45.493Z,25.32
2019-03-29T14:50:16.149Z,21.62
2019-03-29T14:52:46.501Z,21.40
2019-03-29T14:55:16.855Z,21.60
2019-03-29T14:57:47.194Z,22.73
2019-03-29T15:00:22.152Z,20.55
2019-03-29T15:02:52.502Z,25.40
2019-03-29T15:05:22.847Z,22.52
2019-03-29T15:07:53.360Z,22.25
2019-03-29T15:10:28.227Z,21.33
2019-03-29T15:12:58.562Z,21.65
2019-03-29T15:15:28.918Z,21.62
2019-03-29T15:18:00.320Z,21.95
2019-03-29T15:20:30.675Z,20.85
2019-03-29T15:23:01.017Z,21.27
2019-03-29T15:25:31.365Z,20.60
2019-03-29T15:28:01.726Z,23.20
2019-03-29T15:30:32.070Z,22.42
2019-03-29T15:33:02.413Z,20.90
2019-03-29T15:35:32.754Z,20.15
2019-03-29T15:38:03.103Z,19.95
2019-03-29T15:40:33.518Z,19.67
2019-03-29T15:43:03.855Z,19.17
2019-03-29T15:45:35.270Z,19.98
2019-03-29T15:48:05.689Z,20.23
2019-03-29T15:50:36.042Z,19.50
2019-03-29T15:53:06.381Z,18.48
2019-03-29T15:55:37.804Z,18.80
2019-03-29T15:58:08.155Z,18.65
2019-03-29T16:00:38.509Z,18.80
2019-03-29T16:03:08.868Z,16.62
2019-03-29T16:05:39.203Z,17.37
2019-03-29T16:08:09.548Z,21.27
2019-03-29T16:10:41.326Z,18.12
2019-03-29T16:13:11.946Z,19.73
2019-03-29T16:15:42.291Z,20.77
2019-03-29T16:18:12.636Z,18.75
2019-03-29T16:20:42.979Z,17.30
2019-03-29T16:23:13.322Z,16.60
2019-03-29T16:25:43.667Z,15.10
2019-03-29T16:28:14.012Z,15.48
2019-03-29T16:30:45.985Z,15.20
2019-03-29T16:33:16.341Z,12.55
2019-03-29T16:35:46.690Z,12.53
2019-03-29T16:38:17.043Z,13.90
2019-03-29T16:40:47.403Z,14.07
2019-03-29T16:43:17.737Z,15.38
2019-03-29T16:45:48.542Z,15.58
2019-03-29T16:48:19.003Z,15.00
2019-03-29T16:50:49.369Z,14.50
2019-03-29T16:53:19.725Z,13.70
2019-03-29T16:55:50.073Z,14.25
2019-03-29T16:58:20.420Z,15.38
2019-03-29T17:00:50.776Z,15.08
2019-03-29T17:03:21.118Z,14.25
2019-03-29T17:05:51.472Z,14.70
2019-03-29T17:08:21.810Z,14.73
2019-03-29T17:10:52.151Z,14.47
2019-03-29T17:13:22.498Z,14.80
2019-03-29T17:16:01.621Z,21.33
2019-03-29T17:18:29.424Z,23.52
2019-03-29T17:20:57.052Z,24.85
2019-03-29T17:23:27.355Z,25.45
2019-03-29T17:25:57.705Z,25.27
2019-03-29T17:28:28.063Z,25.25
2019-03-29T17:31:00.128Z,25.68
2019-03-29T17:33:31.541Z,26.62
2019-03-29T17:36:01.888Z,26.62
2019-03-29T17:38:32.236Z,25.48
2019-03-29T17:41:02.585Z,27.48
2019-03-29T17:43:33.266Z,27.87
2019-03-29T17:46:15.494Z,26.10
2019-03-29T17:48:35.728Z,25.60
2019-03-29T17:51:07.697Z,25.20
2019-03-29T17:53:38.037Z,26.17
2019-03-29T17:56:08.388Z,26.70
2019-03-29T17:58:38.739Z,25.60
2019-03-29T18:01:09.082Z,26.48
2019-03-29T18:03:39.436Z,25.90
2019-03-29T18:06:09.963Z,24.63
2019-03-29T18:08:40.605Z,26.70
2019-03-29T18:11:11.027Z,37.25
2019-03-29T18:13:41.384Z,28.52
2019-03-29T18:16:11.739Z,28.10
2019-03-29T18:18:42.085Z,26.80
2019-03-29T18:21:12.438Z,27.22
2019-03-29T18:23:42.812Z,26.33
2019-03-29T18:26:13.148Z,26.90
2019-03-29T18:28:43.491Z,29.23
2019-03-29T18:31:13.906Z,37.67
2019-03-29T18:33:45.458Z,30.35
2019-03-29T18:36:15.946Z,27.77
2019-03-29T18:38:48.762Z,28.62
2019-03-29T18:41:19.126Z,27.93
2019-03-29T18:43:49.495Z,27.60
2019-03-29T18:46:19.812Z,26.35
2019-03-29T18:48:50.176Z,27.98
2019-03-29T18:51:20.525Z,28.70
2019-03-29T18:53:50.874Z,27.73
2019-03-29T18:56:21.223Z,30.60
2019-03-29T18:58:51.565Z,27.22
2019-03-29T19:01:21.915Z,28.77
2019-03-29T19:03:52.258Z,28.62
2019-03-29T19:06:22.619Z,30.55
2019-03-29T19:08:52.965Z,30.05
2019-03-29T19:11:23.310Z,27.20
2019-03-29T19:13:53.947Z,29.50
2019-03-29T19:16:24.298Z,29.35
2019-03-29T19:18:54.646Z,27.00
2019-03-29T19:21:25.761Z,28.83
2019-03-29T19:23:56.170Z,27.65
2019-03-29T19:26:26.511Z,28.27
2019-03-29T19:28:56.864Z,28.17
2019-03-29T19:31:27.213Z,29.20
2019-03-29T19:33:57.572Z,29.90
2019-03-29T19:36:27.927Z,30.17
2019-03-29T19:38:58.591Z,28.45
2019-03-29T19:41:28.935Z,28.83
2019-03-29T19:43:59.289Z,31.10
2019-03-29T19:46:29.650Z,29.80
2019-03-29T19:49:00.007Z,28.83
2019-03-29T19:51:30.348Z,29.65
2019-03-29T19:54:07.121Z,32.23
2019-03-29T19:56:32.742Z,30.97
2019-03-29T19:59:03.111Z,29.40
2019-03-29T20:01:33.465Z,28.23
2019-03-29T20:04:04.232Z,29.98
2019-03-29T20:06:34.580Z,29.40
2019-03-29T20:09:08.400Z,30.75
2019-03-29T20:11:39.088Z,31.52
2019-03-29T20:14:09.441Z,33.45
2019-03-29T20:16:39.784Z,31.80
2019-03-29T20:19:10.129Z,32.55
2019-03-29T20:21:40.504Z,32.60
2019-03-29T20:24:10.848Z,34.18
2019-03-29T20:26:41.199Z,32.95
2019-03-29T20:29:12.510Z,32.03
2019-03-29T20:31:42.867Z,32.30
2019-03-29T20:34:13.214Z,32.45
2019-03-29T20:36:43.635Z,32.00
2019-03-29T20:39:13.988Z,31.82
2019-03-29T20:41:44.343Z,31.40
2019-03-29T20:44:14.688Z,33.08
2019-03-29T20:46:45.027Z,34.23
2019-03-29T20:49:17.257Z,33.42
2019-03-29T20:51:50.656Z,32.28
2019-03-29T20:54:21.975Z,32.63
2019-03-29T20:56:52.549Z,32.78
2019-03-29T20:59:43.916Z,33.45
2019-03-29T21:02:14.259Z,32.98
2019-03-29T21:04:44.602Z,32.33
2019-03-29T21:07:14.949Z,32.23
2019-03-29T21:09:45.629Z,32.83
2019-03-29T21:12:15.979Z,34.20
2019-03-29T21:14:46.316Z,34.92
2019-03-29T21:17:17.952Z,32.80
2019-03-29T21:19:49.466Z,31.73
2019-03-29T21:22:19.803Z,33.48
2019-03-29T21:24:50.152Z,33.50
2019-03-29T21:27:20.489Z,35.15
2019-03-29T21:29:50.849Z,35.55
2019-03-29T21:32:21.188Z,34.83
2019-03-29T21:34:51.532Z,32.45
2019-03-29T21:37:21.879Z,33.98
2019-03-29T21:39:52.215Z,35.68
2019-03-29T21:42:22.558Z,36.17
2019-03-29T21:44:52.898Z,34.35
2019-03-29T21:47:23.245Z,35.05
2019-03-29T21:49:53.601Z,34.63
2019-03-29T21:52:23.929Z,32.75
2019-03-29T21:54:54.275Z,31.05
2019-03-29T21:57:24.615Z,35.15
2019-03-29T21:59:54.956Z,33.40
2019-03-29T22:02:25.311Z,36.83
2019-03-29T22:04:55.651Z,36.42
2019-03-29T22:07:25.993Z,33.73
2019-03-29T22:09:56.336Z,36.10
2019-03-29T22:12:26.686Z,35.68
2019-03-29T22:14:57.048Z,37.20
2019-03-29T22:17:27.384Z,35.38
2019-03-29T22:19:57.726Z,35.50
2019-03-29T22:22:28.066Z,36.98
2019-03-29T22:24:58.410Z,35.88
2019-03-29T22:27:28.751Z,37.30
2019-03-29T22:29:59.090Z,34.20
2019-03-29T22:32:29.433Z,36.90
2019-03-29T22:34:59.778Z,36.83
2019-03-29T22:37:30.121Z,36.85
2019-03-29T22:40:00.454Z,37.85
2019-03-29T22:42:30.792Z,36.58
2019-03-29T22:45:01.135Z,36.30
2019-03-29T22:47:31.477Z,39.63
2019-03-29T22:50:01.824Z,36.83
2019-03-29T22:52:32.171Z,36.65
2019-03-29T22:55:02.578Z,39.18
2019-03-29T22:57:32.926Z,37.70
2019-03-29T23:00:04.974Z,36.23
2019-03-29T23:02:38.600Z,37.55
2019-03-29T23:05:09.174Z,37.35
2019-03-29T23:07:39.518Z,34.50
2019-03-29T23:10:10.066Z,37.85
2019-03-29T23:12:40.406Z,36.85
2019-03-29T23:15:10.889Z,37.42
2019-03-29T23:17:41.228Z,36.80
2019-03-29T23:20:11.979Z,35.92
2019-03-29T23:22:42.323Z,36.13
2019-03-29T23:25:12.807Z,36.55
2019-03-29T23:27:43.149Z,36.55
2019-03-29T23:30:14.511Z,35.52
2019-03-29T23:32:45.791Z,36.90
2019-03-29T23:35:16.133Z,36.90
2019-03-29T23:37:46.478Z,36.42
2019-03-29T23:40:16.811Z,35.15
2019-03-29T23:42:47.226Z,36.53
2019-03-29T23:45:17.497Z,37.08
2019-03-29T23:47:47.850Z,37.93
2019-03-29T23:50:18.193Z,36.88
2019-03-29T23:52:48.539Z,36.33
2019-03-29T23:55:18.891Z,38.88
2019-03-29T23:57:49.230Z,32.85
